sensor_id;sensor_type;location;lat;lon;timestamp;temperature;humidity
51863;DHT22;37900;52.996;6.278;2024-03-07T00:02:06;15.10;87.60
51863;DHT22;37900;52.996;6.278;2024-03-07T00:04:32;15.70;87.80
51863;DHT22;37900;52.996;6.278;2024-03-07T00:06:57;15.70;87.80
51863;DHT22;37900;52.996;6.278;2024-03-07T00:09:23;15.70;87.70
51863;DHT22;37900;52.996;6.278;2024-03-07T00:11:52;15.70;87.10
51863;DHT22;37900;52.996;6.278;2024-03-07T00:14:18;15.70;87.60
51863;DHT22;37900;52.996;6.278;2024-03-07T00:16:43;15.60;86.90
51863;DHT22;37900;52.996;6.278;2024-03-07T00:19:09;15.70;87.40
51863;DHT22;37900;52.996;6.278;2024-03-07T00:21:34;15.70;87.30
51863;DHT22;37900;52.996;6.278;2024-03-07T00:24:00;15.70;87.30
51863;DHT22;37900;52.996;6.278;2024-03-07T00:26:26;15.60;87.10
51863;DHT22;37900;52.996;6.278;2024-03-07T00:28:51;15.60;86.50
51863;DHT22;37900;52.996;6.278;2024-03-07T00:31:17;15.60;87.00
51863;DHT22;37900;52.996;6.278;2024-03-07T00:33:43;15.60;86.90
51863;DHT22;37900;52.996;6.278;2024-03-07T00:36:09;15.60;86.90
51863;DHT22;37900;52.996;6.278;2024-03-07T00:38:34;15.60;86.80
51863;DHT22;37900;52.996;6.278;2024-03-07T00:41:00;15.60;86.70
51863;DHT22;37900;52.996;6.278;2024-03-07T00:43:26;15.60;86.70
51863;DHT22;37900;52.996;6.278;2024-03-07T00:45:51;15.60;86.60
51863;DHT22;37900;52.996;6.278;2024-03-07T00:48:17;15.60;86.00
51863;DHT22;37900;52.996;6.278;2024-03-07T00:50:43;15.60;86.40
51863;DHT22;37900;52.996;6.278;2024-03-07T00:53:08;15.50;85.80
51863;DHT22;37900;52.996;6.278;2024-03-07T00:55:34;15.60;86.30
51863;DHT22;37900;52.996;6.278;2024-03-07T00:58:00;15.60;86.30
51863;DHT22;37900;52.996;6.278;2024-03-07T01:00:25;15.60;86.20
51863;DHT22;37900;52.996;6.278;2024-03-07T01:02:51;15.60;86.20
51863;DHT22;37900;52.996;6.278;2024-03-07T01:05:18;15.50;85.50
51863;DHT22;37900;52.996;6.278;2024-03-07T01:07:44;15.50;85.90
51863;DHT22;37900;52.996;6.278;2024-03-07T01:10:13;15.60;86.10
51863;DHT22;37900;52.996;6.278;2024-03-07T01:12:39;16.20;86.20
51863;DHT22;37900;52.996;6.278;2024-03-07T01:15:05;15.70;85.40
51863;DHT22;37900;52.996;6.278;2024-03-07T01:17:31;15.50;85.80
51863;DHT22;37900;52.996;6.278;2024-03-07T01:19:57;15.50;85.70
51863;DHT22;37900;52.996;6.278;2024-03-07T01:22:23;15.50;85.60
51863;DHT22;37900;52.996;6.278;2024-03-07T01:24:49;15.40;85.00
51863;DHT22;37900;52.996;6.278;2024-03-07T01:27:16;15.50;85.60
51863;DHT22;37900;52.996;6.278;2024-03-07T01:29:42;15.50;85.50
51863;DHT22;37900;52.996;6.278;2024-03-07T01:32:10;15.50;85.50
51863;DHT22;37900;52.996;6.278;2024-03-07T01:34:35;15.50;85.40
51863;DHT22;37900;52.996;6.278;2024-03-07T01:37:01;15.50;85.40
51863;DHT22;37900;52.996;6.278;2024-03-07T01:39:27;15.40;85.30
51863;DHT22;37900;52.996;6.278;2024-03-07T01:41:52;15.60;85.40
51863;DHT22;37900;52.996;6.278;2024-03-07T01:44:18;15.50;85.20
51863;DHT22;37900;52.996;6.278;2024-03-07T01:46:44;15.50;85.20
51863;DHT22;37900;52.996;6.278;2024-03-07T01:49:09;15.50;85.10
51863;DHT22;37900;52.996;6.278;2024-03-07T01:51:36;17.10;85.40
51863;DHT22;37900;52.996;6.278;2024-03-07T01:54:02;15.40;85.00
51863;DHT22;37900;52.996;6.278;2024-03-07T01:56:28;15.40;84.90
51863;DHT22;37900;52.996;6.278;2024-03-07T01:58:54;15.40;85.00
51863;DHT22;37900;52.996;6.278;2024-03-07T02:01:20;15.40;84.90
51863;DHT22;37900;52.996;6.278;2024-03-07T02:03:46;15.40;84.20
51863;DHT22;37900;52.996;6.278;2024-03-07T02:06:12;15.40;84.80
51863;DHT22;37900;52.996;6.278;2024-03-07T02:08:38;15.40;84.70
51863;DHT22;37900;52.996;6.278;2024-03-07T02:11:04;15.40;84.10
51863;DHT22;37900;52.996;6.278;2024-03-07T02:13:29;15.30;84.60
51863;DHT22;37900;52.996;6.278;2024-03-07T02:15:57;15.30;84.00
51863;DHT22;37900;52.996;6.278;2024-03-07T02:18:22;15.40;84.60
51863;DHT22;37900;52.996;6.278;2024-03-07T02:20:49;15.40;84.80
51863;DHT22;37900;52.996;6.278;2024-03-07T02:23:14;15.30;83.90
51863;DHT22;37900;52.996;6.278;2024-03-07T02:25:40;15.30;84.40
51863;DHT22;37900;52.996;6.278;2024-03-07T02:28:06;15.30;84.30
51863;DHT22;37900;52.996;6.278;2024-03-07T02:30:31;15.30;84.30
51863;DHT22;37900;52.996;6.278;2024-03-07T02:32:58;15.30;83.70
51863;DHT22;37900;52.996;6.278;2024-03-07T02:35:25;15.30;84.30
51863;DHT22;37900;52.996;6.278;2024-03-07T02:37:50;15.30;84.20
51863;DHT22;37900;52.996;6.278;2024-03-07T02:40:16;15.30;83.70
51863;DHT22;37900;52.996;6.278;2024-03-07T02:42:42;15.30;83.60
51863;DHT22;37900;52.996;6.278;2024-03-07T02:45:08;15.30;83.60
51863;DHT22;37900;52.996;6.278;2024-03-07T02:47:33;15.80;83.80
51863;DHT22;37900;52.996;6.278;2024-03-07T02:49:59;15.30;84.00
51863;DHT22;37900;52.996;6.278;2024-03-07T02:52:25;15.30;83.40
51863;DHT22;37900;52.996;6.278;2024-03-07T02:54:50;11.90;81.60
51863;DHT22;37900;52.996;6.278;2024-03-07T02:57:16;15.30;84.00
51863;DHT22;37900;52.996;6.278;2024-03-07T02:59:41;15.20;83.30
51863;DHT22;37900;52.996;6.278;2024-03-07T03:02:07;15.20;83.20
51863;DHT22;37900;52.996;6.278;2024-03-07T03:04:33;15.30;83.80
51863;DHT22;37900;52.996;6.278;2024-03-07T03:06:58;15.30;83.70
51863;DHT22;37900;52.996;6.278;2024-03-07T03:09:24;15.30;83.70
51863;DHT22;37900;52.996;6.278;2024-03-07T03:11:49;15.20;83.60
51863;DHT22;37900;52.996;6.278;2024-03-07T03:14:17;15.20;83.50
51863;DHT22;37900;52.996;6.278;2024-03-07T03:16:43;15.20;83.50
51863;DHT22;37900;52.996;6.278;2024-03-07T03:19:09;15.20;83.40
51863;DHT22;37900;52.996;6.278;2024-03-07T03:21:35;15.20;83.40
51863;DHT22;37900;52.996;6.278;2024-03-07T03:24:00;15.20;83.40
51863;DHT22;37900;52.996;6.278;2024-03-07T03:26:28;15.20;83.40
51863;DHT22;37900;52.996;6.278;2024-03-07T03:28:53;15.20;82.80
51863;DHT22;37900;52.996;6.278;2024-03-07T03:31:19;15.20;83.30
51863;DHT22;37900;52.996;6.278;2024-03-07T03:33:45;15.20;83.40
51863;DHT22;37900;52.996;6.278;2024-03-07T03:36:11;15.20;83.10
51863;DHT22;37900;52.996;6.278;2024-03-07T03:38:36;15.10;82.50
51863;DHT22;37900;52.996;6.278;2024-03-07T03:41:02;15.20;83.00
51863;DHT22;37900;52.996;6.278;2024-03-07T03:43:30;15.20;82.90
51863;DHT22;37900;52.996;6.278;2024-03-07T03:45:55;15.20;82.90
51863;DHT22;37900;52.996;6.278;2024-03-07T03:48:21;15.30;83.00
51863;DHT22;37900;52.996;6.278;2024-03-07T03:50:47;15.20;83.00
51863;DHT22;37900;52.996;6.278;2024-03-07T03:53:13;15.30;83.10
51863;DHT22;37900;52.996;6.278;2024-03-07T03:55:38;15.30;83.10
51863;DHT22;37900;52.996;6.278;2024-03-07T03:58:04;15.30;83.10
51863;DHT22;37900;52.996;6.278;2024-03-07T04:00:33;15.30;83.10
51863;DHT22;37900;52.996;6.278;2024-03-07T04:02:59;15.30;83.10
51863;DHT22;37900;52.996;6.278;2024-03-07T04:05:24;15.20;83.00
51863;DHT22;37900;52.996;6.278;2024-03-07T04:07:50;15.20;82.90
51863;DHT22;37900;52.996;6.278;2024-03-07T04:10:16;15.20;82.90
51863;DHT22;37900;52.996;6.278;2024-03-07T04:12:42;15.20;82.80
51863;DHT22;37900;52.996;6.278;2024-03-07T04:15:08;15.20;82.80
51863;DHT22;37900;52.996;6.278;2024-03-07T04:17:34;15.20;82.20
51863;DHT22;37900;52.996;6.278;2024-03-07T04:20:00;15.20;82.80
51863;DHT22;37900;52.996;6.278;2024-03-07T04:22:26;15.20;82.70
51863;DHT22;37900;52.996;6.278;2024-03-07T04:24:51;15.10;82.60
51863;DHT22;37900;52.996;6.278;2024-03-07T04:27:20;15.10;82.50
51863;DHT22;37900;52.996;6.278;2024-03-07T04:29:46;15.10;82.50
51863;DHT22;37900;52.996;6.278;2024-03-07T04:32:13;15.10;81.90
51863;DHT22;37900;52.996;6.278;2024-03-07T04:34:39;15.10;82.50
51863;DHT22;37900;52.996;6.278;2024-03-07T04:37:04;15.10;82.30
51863;DHT22;37900;52.996;6.278;2024-03-07T04:39:30;15.10;82.20
51863;DHT22;37900;52.996;6.278;2024-03-07T04:41:59;15.10;81.90
51863;DHT22;37900;52.996;6.278;2024-03-07T04:44:28;15.10;81.90
51863;DHT22;37900;52.996;6.278;2024-03-07T04:46:54;15.20;82.00
51863;DHT22;37900;52.996;6.278;2024-03-07T04:49:23;15.20;81.50
51863;DHT22;37900;52.996;6.278;2024-03-07T04:51:50;15.20;82.10
51863;DHT22;37900;52.996;6.278;2024-03-07T04:54:16;15.20;82.10
51863;DHT22;37900;52.996;6.278;2024-03-07T04:56:41;15.20;82.20
51863;DHT22;37900;52.996;6.278;2024-03-07T04:59:07;15.20;82.30
51863;DHT22;37900;52.996;6.278;2024-03-07T05:01:33;13.30;81.20
51863;DHT22;37900;52.996;6.278;2024-03-07T05:03:58;15.20;82.20
51863;DHT22;37900;52.996;6.278;2024-03-07T05:06:24;15.10;81.60
51863;DHT22;37900;52.996;6.278;2024-03-07T05:08:50;15.10;81.50
51863;DHT22;37900;52.996;6.278;2024-03-07T05:11:16;15.10;82.10
51863;DHT22;37900;52.996;6.278;2024-03-07T05:13:42;15.10;81.40
51863;DHT22;37900;52.996;6.278;2024-03-07T05:16:08;15.10;82.00
51863;DHT22;37900;52.996;6.278;2024-03-07T05:18:33;15.10;81.40
51863;DHT22;37900;52.996;6.278;2024-03-07T05:20:59;15.10;81.90
51863;DHT22;37900;52.996;6.278;2024-03-07T05:23:44;15.10;81.30
51863;DHT22;37900;52.996;6.278;2024-03-07T05:26:10;15.10;81.90
51863;DHT22;37900;52.996;6.278;2024-03-07T05:28:36;15.00;81.00
51863;DHT22;37900;52.996;6.278;2024-03-07T05:31:02;15.00;81.30
51863;DHT22;37900;52.996;6.278;2024-03-07T05:33:29;15.00;80.60
51863;DHT22;37900;52.996;6.278;2024-03-07T05:35:55;15.10;81.20
51863;DHT22;37900;52.996;6.278;2024-03-07T05:38:39;15.10;81.20
51863;DHT22;37900;52.996;6.278;2024-03-07T05:41:04;15.10;81.20
51863;DHT22;37900;52.996;6.278;2024-03-07T05:43:30;15.10;81.30
51863;DHT22;37900;52.996;6.278;2024-03-07T05:45:57;15.10;81.30
51863;DHT22;37900;52.996;6.278;2024-03-07T05:48:26;15.10;81.50
51863;DHT22;37900;52.996;6.278;2024-03-07T05:50:51;15.10;81.50
51863;DHT22;37900;52.996;6.278;2024-03-07T05:53:18;15.10;81.50
51863;DHT22;37900;52.996;6.278;2024-03-07T05:55:43;15.00;80.90
51863;DHT22;37900;52.996;6.278;2024-03-07T05:58:11;15.10;81.50
51863;DHT22;37900;52.996;6.278;2024-03-07T06:00:36;15.10;81.50
51863;DHT22;37900;52.996;6.278;2024-03-07T06:03:06;15.00;81.40
51863;DHT22;37900;52.996;6.278;2024-03-07T06:05:33;15.10;81.30
51863;DHT22;37900;52.996;6.278;2024-03-07T06:07:59;15.00;81.30
51863;DHT22;37900;52.996;6.278;2024-03-07T06:10:25;15.00;81.20
51863;DHT22;37900;52.996;6.278;2024-03-07T06:12:54;15.00;80.80
51863;DHT22;37900;52.996;6.278;2024-03-07T06:15:19;11.10;78.80
51863;DHT22;37900;52.996;6.278;2024-03-07T06:17:46;15.00;80.10
51863;DHT22;37900;52.996;6.278;2024-03-07T06:20:12;15.00;80.00
51863;DHT22;37900;52.996;6.278;2024-03-07T06:22:48;13.20;79.70
51863;DHT22;37900;52.996;6.278;2024-03-07T06:25:15;15.00;80.50
51863;DHT22;37900;52.996;6.278;2024-03-07T06:27:46;15.10;80.10
51863;DHT22;37900;52.996;6.278;2024-03-07T06:30:15;15.00;80.60
51863;DHT22;37900;52.996;6.278;2024-03-07T06:32:46;15.00;80.80
51863;DHT22;37900;52.996;6.278;2024-03-07T06:35:11;15.10;80.90
51863;DHT22;37900;52.996;6.278;2024-03-07T06:37:37;15.00;80.30
51863;DHT22;37900;52.996;6.278;2024-03-07T06:40:03;15.00;80.90
51863;DHT22;37900;52.996;6.278;2024-03-07T06:42:35;15.00;80.80
51863;DHT22;37900;52.996;6.278;2024-03-07T06:45:05;15.00;80.90
51863;DHT22;37900;52.996;6.278;2024-03-07T06:47:31;15.00;80.80
51863;DHT22;37900;52.996;6.278;2024-03-07T06:49:57;15.00;80.30
51863;DHT22;37900;52.996;6.278;2024-03-07T06:52:23;15.00;80.80
51863;DHT22;37900;52.996;6.278;2024-03-07T06:54:48;14.90;80.00
51863;DHT22;37900;52.996;6.278;2024-03-07T06:57:16;14.90;80.60
51863;DHT22;37900;52.996;6.278;2024-03-07T06:59:42;14.90;80.10
51863;DHT22;37900;52.996;6.278;2024-03-07T07:02:08;15.00;80.80
51863;DHT22;37900;52.996;6.278;2024-03-07T07:04:33;15.00;80.80
51863;DHT22;37900;52.996;6.278;2024-03-07T07:07:07;14.90;80.80
51863;DHT22;37900;52.996;6.278;2024-03-07T07:09:34;14.90;80.20
51863;DHT22;37900;52.996;6.278;2024-03-07T07:12:00;14.90;80.70
51863;DHT22;37900;52.996;6.278;2024-03-07T07:14:28;15.00;79.80
51863;DHT22;37900;52.996;6.278;2024-03-07T07:16:54;14.90;79.70
51863;DHT22;37900;52.996;6.278;2024-03-07T07:19:21;15.00;79.50
51863;DHT22;37900;52.996;6.278;2024-03-07T07:21:47;15.00;80.20
51863;DHT22;37900;52.996;6.278;2024-03-07T07:24:15;15.00;79.70
51863;DHT22;37900;52.996;6.278;2024-03-07T07:26:40;15.00;80.30
51863;DHT22;37900;52.996;6.278;2024-03-07T07:29:06;15.00;81.10
51863;DHT22;37900;52.996;6.278;2024-03-07T07:31:31;15.00;81.50
51863;DHT22;37900;52.996;6.278;2024-03-07T07:33:58;15.10;81.70
51863;DHT22;37900;52.996;6.278;2024-03-07T07:36:23;15.10;81.80
51863;DHT22;37900;52.996;6.278;2024-03-07T07:38:49;15.10;81.70
51863;DHT22;37900;52.996;6.278;2024-03-07T07:41:14;15.10;81.80
51863;DHT22;37900;52.996;6.278;2024-03-07T07:43:40;15.10;82.10
51863;DHT22;37900;52.996;6.278;2024-03-07T07:46:06;15.10;82.90
51863;DHT22;37900;52.996;6.278;2024-03-07T07:48:32;15.10;83.40
51863;DHT22;37900;52.996;6.278;2024-03-07T07:50:58;15.20;83.40
51863;DHT22;37900;52.996;6.278;2024-03-07T07:53:24;15.20;83.40
51863;DHT22;37900;52.996;6.278;2024-03-07T07:55:49;15.20;83.80
51863;DHT22;37900;52.996;6.278;2024-03-07T07:58:15;15.20;83.40
51863;DHT22;37900;52.996;6.278;2024-03-07T08:00:40;15.20;83.30
51863;DHT22;37900;52.996;6.278;2024-03-07T08:03:09;15.20;83.40
51863;DHT22;37900;52.996;6.278;2024-03-07T08:05:36;15.20;84.00
51863;DHT22;37900;52.996;6.278;2024-03-07T08:08:02;15.30;84.00
51863;DHT22;37900;52.996;6.278;2024-03-07T08:10:30;15.20;84.10
51863;DHT22;37900;52.996;6.278;2024-03-07T08:12:56;15.90;84.60
51863;DHT22;37900;52.996;6.278;2024-03-07T08:15:22;15.30;84.00
51863;DHT22;37900;52.996;6.278;2024-03-07T08:17:48;15.30;84.50
51863;DHT22;37900;52.996;6.278;2024-03-07T08:20:15;15.30;84.30
51863;DHT22;37900;52.996;6.278;2024-03-07T08:22:41;15.30;84.90
51863;DHT22;37900;52.996;6.278;2024-03-07T08:25:08;15.30;84.30
51863;DHT22;37900;52.996;6.278;2024-03-07T08:27:35;15.40;84.40
51863;DHT22;37900;52.996;6.278;2024-03-07T08:30:02;15.40;84.40
51863;DHT22;37900;52.996;6.278;2024-03-07T08:32:28;15.40;84.70
51863;DHT22;37900;52.996;6.278;2024-03-07T08:34:53;15.30;84.00
51863;DHT22;37900;52.996;6.278;2024-03-07T08:37:20;15.40;84.40
51863;DHT22;37900;52.996;6.278;2024-03-07T08:39:46;15.40;84.30
51863;DHT22;37900;52.996;6.278;2024-03-07T08:42:12;15.40;83.60
51863;DHT22;37900;52.996;6.278;2024-03-07T08:44:38;15.40;84.10
51863;DHT22;37900;52.996;6.278;2024-03-07T08:47:03;15.40;83.50
51863;DHT22;37900;52.996;6.278;2024-03-07T08:49:29;15.40;83.50
51863;DHT22;37900;52.996;6.278;2024-03-07T08:51:55;15.40;83.30
51863;DHT22;37900;52.996;6.278;2024-03-07T08:54:20;15.40;84.20
51863;DHT22;37900;52.996;6.278;2024-03-07T08:56:46;15.40;83.60
51863;DHT22;37900;52.996;6.278;2024-03-07T08:59:11;15.40;84.10
51863;DHT22;37900;52.996;6.278;2024-03-07T09:01:41;15.40;83.60
51863;DHT22;37900;52.996;6.278;2024-03-07T09:04:09;15.50;84.30
51863;DHT22;37900;52.996;6.278;2024-03-07T09:06:35;15.50;84.00
51863;DHT22;37900;52.996;6.278;2024-03-07T09:09:00;15.50;84.30
51863;DHT22;37900;52.996;6.278;2024-03-07T09:11:26;15.50;84.90
51863;DHT22;37900;52.996;6.278;2024-03-07T09:13:51;15.50;84.50
51863;DHT22;37900;52.996;6.278;2024-03-07T09:16:17;15.60;84.50
51863;DHT22;37900;52.996;6.278;2024-03-07T09:18:43;15.60;84.50
51863;DHT22;37900;52.996;6.278;2024-03-07T09:21:08;15.60;84.90
51863;DHT22;37900;52.996;6.278;2024-03-07T09:23:34;15.70;84.80
51863;DHT22;37900;52.996;6.278;2024-03-07T09:26:00;14.90;84.20
51863;DHT22;37900;52.996;6.278;2024-03-07T09:28:28;15.70;84.50
51863;DHT22;37900;52.996;6.278;2024-03-07T09:30:53;15.80;84.50
51863;DHT22;37900;52.996;6.278;2024-03-07T09:33:20;15.70;84.40
51863;DHT22;37900;52.996;6.278;2024-03-07T09:35:46;15.70;83.70
51863;DHT22;37900;52.996;6.278;2024-03-07T09:38:13;15.70;84.10
51863;DHT22;37900;52.996;6.278;2024-03-07T09:40:40;15.70;84.20
51863;DHT22;37900;52.996;6.278;2024-03-07T09:43:06;15.70;84.30
51863;DHT22;37900;52.996;6.278;2024-03-07T09:45:35;15.70;84.40
51863;DHT22;37900;52.996;6.278;2024-03-07T09:48:01;15.70;84.50
51863;DHT22;37900;52.996;6.278;2024-03-07T09:50:29;15.80;84.60
51863;DHT22;37900;52.996;6.278;2024-03-07T09:52:54;15.80;84.70
51863;DHT22;37900;52.996;6.278;2024-03-07T09:55:20;15.80;84.80
51863;DHT22;37900;52.996;6.278;2024-03-07T09:57:47;15.80;85.00
51863;DHT22;37900;52.996;6.278;2024-03-07T10:00:13;15.80;85.00
51863;DHT22;37900;52.996;6.278;2024-03-07T10:02:49;15.80;84.60
51863;DHT22;37900;52.996;6.278;2024-03-07T10:05:15;15.90;84.70
51863;DHT22;37900;52.996;6.278;2024-03-07T10:07:42;15.80;84.80
51863;DHT22;37900;52.996;6.278;2024-03-07T10:10:08;15.90;85.50
51863;DHT22;37900;52.996;6.278;2024-03-07T10:12:37;15.90;85.50
51863;DHT22;37900;52.996;6.278;2024-03-07T10:15:04;15.90;85.00
51863;DHT22;37900;52.996;6.278;2024-03-07T10:17:35;15.90;85.50
51863;DHT22;37900;52.996;6.278;2024-03-07T10:20:02;15.90;85.50
51863;DHT22;37900;52.996;6.278;2024-03-07T10:22:28;15.90;85.50
51863;DHT22;37900;52.996;6.278;2024-03-07T10:24:55;16.00;85.50
51863;DHT22;37900;52.996;6.278;2024-03-07T10:27:22;16.00;85.50
51863;DHT22;37900;52.996;6.278;2024-03-07T10:29:48;16.00;85.40
51863;DHT22;37900;52.996;6.278;2024-03-07T10:32:19;16.00;85.00
51863;DHT22;37900;52.996;6.278;2024-03-07T10:34:45;16.00;85.00
51863;DHT22;37900;52.996;6.278;2024-03-07T10:37:12;18.30;86.80
51863;DHT22;37900;52.996;6.278;2024-03-07T10:39:42;16.00;85.60
51863;DHT22;37900;52.996;6.278;2024-03-07T10:42:08;16.00;85.00
51863;DHT22;37900;52.996;6.278;2024-03-07T10:44:42;16.00;85.00
51863;DHT22;37900;52.996;6.278;2024-03-07T10:47:15;16.00;85.60
51863;DHT22;37900;52.996;6.278;2024-03-07T10:49:43;16.00;85.50
51863;DHT22;37900;52.996;6.278;2024-03-07T10:52:13;16.10;85.50
51863;DHT22;37900;52.996;6.278;2024-03-07T10:57:44;16.10;85.50
51863;DHT22;37900;52.996;6.278;2024-03-07T11:00:11;16.10;85.60
51863;DHT22;37900;52.996;6.278;2024-03-07T11:02:55;16.10;85.60
51863;DHT22;37900;52.996;6.278;2024-03-07T11:05:23;16.10;85.70
51863;DHT22;37900;52.996;6.278;2024-03-07T11:07:51;16.10;85.60
51863;DHT22;37900;52.996;6.278;2024-03-07T11:10:18;16.10;85.30
51863;DHT22;37900;52.996;6.278;2024-03-07T11:12:43;16.10;85.80
51863;DHT22;37900;52.996;6.278;2024-03-07T11:15:09;16.10;85.70
51863;DHT22;37900;52.996;6.278;2024-03-07T11:17:46;16.10;86.40
51863;DHT22;37900;52.996;6.278;2024-03-07T11:20:33;16.10;86.50
51863;DHT22;37900;52.996;6.278;2024-03-07T11:22:59;16.10;86.80
51863;DHT22;37900;52.996;6.278;2024-03-07T11:25:26;16.10;86.60
51863;DHT22;37900;52.996;6.278;2024-03-07T11:30:19;16.10;87.10
51863;DHT22;37900;52.996;6.278;2024-03-07T11:32:46;16.10;86.50
51863;DHT22;37900;52.996;6.278;2024-03-07T11:35:14;16.20;87.00
51863;DHT22;37900;52.996;6.278;2024-03-07T11:37:41;16.10;86.90
51863;DHT22;37900;52.996;6.278;2024-03-07T11:40:13;16.10;86.90
51863;DHT22;37900;52.996;6.278;2024-03-07T11:42:46;16.10;86.90
51863;DHT22;37900;52.996;6.278;2024-03-07T11:45:13;16.10;86.80
51863;DHT22;37900;52.996;6.278;2024-03-07T11:47:53;16.20;86.80
51863;DHT22;37900;52.996;6.278;2024-03-07T11:50:40;16.20;86.30
51863;DHT22;37900;52.996;6.278;2024-03-07T11:53:07;16.20;86.70
51863;DHT22;37900;52.996;6.278;2024-03-07T11:55:33;16.10;86.60
51863;DHT22;37900;52.996;6.278;2024-03-07T11:58:10;16.10;86.00
51863;DHT22;37900;52.996;6.278;2024-03-07T12:00:41;16.10;86.50
51863;DHT22;37900;52.996;6.278;2024-03-07T12:03:16;16.10;85.90
51863;DHT22;37900;52.996;6.278;2024-03-07T12:05:50;16.20;86.40
51863;DHT22;37900;52.996;6.278;2024-03-07T12:08:19;16.20;86.40
51863;DHT22;37900;52.996;6.278;2024-03-07T12:10:48;16.20;85.80
51863;DHT22;37900;52.996;6.278;2024-03-07T12:13:17;16.20;86.40
51863;DHT22;37900;52.996;6.278;2024-03-07T12:15:44;16.20;86.50
51863;DHT22;37900;52.996;6.278;2024-03-07T12:18:10;16.10;86.00
51863;DHT22;37900;52.996;6.278;2024-03-07T12:20:39;16.20;86.30
51863;DHT22;37900;52.996;6.278;2024-03-07T12:23:08;16.20;86.10
51863;DHT22;37900;52.996;6.278;2024-03-07T12:25:34;16.20;85.90
51863;DHT22;37900;52.996;6.278;2024-03-07T12:28:08;16.10;85.70
51863;DHT22;37900;52.996;6.278;2024-03-07T12:33:11;16.10;85.30
51863;DHT22;37900;52.996;6.278;2024-03-07T12:35:39;16.10;85.20
51863;DHT22;37900;52.996;6.278;2024-03-07T12:38:08;16.10;85.60
51863;DHT22;37900;52.996;6.278;2024-03-07T12:40:36;16.10;85.80
51863;DHT22;37900;52.996;6.278;2024-03-07T12:43:12;16.10;86.70
51863;DHT22;37900;52.996;6.278;2024-03-07T12:45:42;16.10;86.90
51863;DHT22;37900;52.996;6.278;2024-03-07T12:48:08;16.10;87.20
51863;DHT22;37900;52.996;6.278;2024-03-07T12:50:40;16.10;86.90
51863;DHT22;37900;52.996;6.278;2024-03-07T12:53:06;16.10;87.10
51863;DHT22;37900;52.996;6.278;2024-03-07T12:55:40;16.10;87.00
51863;DHT22;37900;52.996;6.278;2024-03-07T12:58:09;16.10;87.10
51863;DHT22;37900;52.996;6.278;2024-03-07T13:00:37;16.30;87.40
51863;DHT22;37900;52.996;6.278;2024-03-07T13:03:03;16.10;87.80
51863;DHT22;37900;52.996;6.278;2024-03-07T13:05:29;16.10;87.60
51863;DHT22;37900;52.996;6.278;2024-03-07T13:07:55;16.10;87.30
51863;DHT22;37900;52.996;6.278;2024-03-07T13:10:21;15.00;86.90
51863;DHT22;37900;52.996;6.278;2024-03-07T13:12:47;16.60;88.30
51863;DHT22;37900;52.996;6.278;2024-03-07T13:15:14;15.10;87.00
51863;DHT22;37900;52.996;6.278;2024-03-07T13:17:40;16.10;87.50
51863;DHT22;37900;52.996;6.278;2024-03-07T13:20:13;16.10;88.00
51863;DHT22;37900;52.996;6.278;2024-03-07T13:22:42;16.10;88.00
51863;DHT22;37900;52.996;6.278;2024-03-07T13:25:12;16.10;88.00
51863;DHT22;37900;52.996;6.278;2024-03-07T13:27:43;16.10;88.10
51863;DHT22;37900;52.996;6.278;2024-03-07T13:30:09;16.10;88.10
51863;DHT22;37900;52.996;6.278;2024-03-07T13:32:38;16.10;88.10
51863;DHT22;37900;52.996;6.278;2024-03-07T13:35:04;16.10;87.90
51863;DHT22;37900;52.996;6.278;2024-03-07T13:37:37;16.10;87.70
51863;DHT22;37900;52.996;6.278;2024-03-07T13:40:02;16.10;87.10
51863;DHT22;37900;52.996;6.278;2024-03-07T13:45:20;16.10;86.80
51863;DHT22;37900;52.996;6.278;2024-03-07T13:47:46;16.10;87.20
51863;DHT22;37900;52.996;6.278;2024-03-07T13:50:17;16.10;87.10
51863;DHT22;37900;52.996;6.278;2024-03-07T13:52:45;16.10;87.00
51863;DHT22;37900;52.996;6.278;2024-03-07T13:55:31;16.10;87.00
51863;DHT22;37900;52.996;6.278;2024-03-07T13:57:58;16.10;86.50
51863;DHT22;37900;52.996;6.278;2024-03-07T14:20:15;16.00;86.90
51863;DHT22;37900;52.996;6.278;2024-03-07T14:30:44;16.10;86.80
51863;DHT22;37900;52.996;6.278;2024-03-07T14:33:19;16.10;86.20
51863;DHT22;37900;52.996;6.278;2024-03-07T14:36:09;16.00;86.70
51863;DHT22;37900;52.996;6.278;2024-03-07T14:38:49;16.10;86.20
51863;DHT22;37900;52.996;6.278;2024-03-07T14:41:16;16.10;86.10
51863;DHT22;37900;52.996;6.278;2024-03-07T14:43:43;16.10;86.60
51863;DHT22;37900;52.996;6.278;2024-03-07T14:46:09;16.10;86.10
51863;DHT22;37900;52.996;6.278;2024-03-07T14:48:38;16.00;86.60
51863;DHT22;37900;52.996;6.278;2024-03-07T14:51:04;16.10;86.70
51863;DHT22;37900;52.996;6.278;2024-03-07T14:53:31;16.00;86.20
51863;DHT22;37900;52.996;6.278;2024-03-07T14:55:56;16.00;86.20
51863;DHT22;37900;52.996;6.278;2024-03-07T14:58:23;16.00;86.30
51863;DHT22;37900;52.996;6.278;2024-03-07T15:00:49;16.00;86.80
51863;DHT22;37900;52.996;6.278;2024-03-07T15:03:15;16.00;86.30
51863;DHT22;37900;52.996;6.278;2024-03-07T15:05:43;16.00;86.30
51863;DHT22;37900;52.996;6.278;2024-03-07T15:08:10;16.10;86.40
51863;DHT22;37900;52.996;6.278;2024-03-07T15:10:36;16.00;86.30
51863;DHT22;37900;52.996;6.278;2024-03-07T15:13:03;16.10;86.40
51863;DHT22;37900;52.996;6.278;2024-03-07T15:15:29;16.10;86.40
51863;DHT22;37900;52.996;6.278;2024-03-07T15:17:58;16.00;86.90
51863;DHT22;37900;52.996;6.278;2024-03-07T15:20:24;16.10;87.10
51863;DHT22;37900;52.996;6.278;2024-03-07T15:22:52;16.10;87.00
51863;DHT22;37900;52.996;6.278;2024-03-07T15:25:21;16.00;87.00
51863;DHT22;37900;52.996;6.278;2024-03-07T15:27:54;16.10;87.70
51863;DHT22;37900;52.996;6.278;2024-03-07T15:30:22;16.10;87.90
51863;DHT22;37900;52.996;6.278;2024-03-07T15:32:51;16.10;87.90
51863;DHT22;37900;52.996;6.278;2024-03-07T15:35:17;16.10;87.50
51863;DHT22;37900;52.996;6.278;2024-03-07T15:37:43;16.10;88.00
51863;DHT22;37900;52.996;6.278;2024-03-07T15:40:10;16.10;87.90
51863;DHT22;37900;52.996;6.278;2024-03-07T15:42:40;19.40;89.70
51863;DHT22;37900;52.996;6.278;2024-03-07T15:45:06;16.10;88.00
51863;DHT22;37900;52.996;6.278;2024-03-07T15:47:37;16.10;87.90
51863;DHT22;37900;52.996;6.278;2024-03-07T15:50:06;16.10;87.30
51863;DHT22;37900;52.996;6.278;2024-03-07T15:52:32;16.20;87.80
51863;DHT22;37900;52.996;6.278;2024-03-07T15:55:02;16.10;87.20
51863;DHT22;37900;52.996;6.278;2024-03-07T15:57:30;16.10;87.70
51863;DHT22;37900;52.996;6.278;2024-03-07T15:59:56;16.10;87.70
51863;DHT22;37900;52.996;6.278;2024-03-07T16:02:22;16.20;87.70
51863;DHT22;37900;52.996;6.278;2024-03-07T16:04:47;16.10;87.10
51863;DHT22;37900;52.996;6.278;2024-03-07T16:07:13;16.20;87.10
51863;DHT22;37900;52.996;6.278;2024-03-07T16:09:39;16.20;87.70